sensor_id;sensor_type;location;lat;lon;timestamp;P1;durP1;ratioP1;P2;durP2;ratioP2
53654;SDS011;39558;52.028;8.536;2023-05-02T00:01:12;5.50;;;2.97;;
53654;SDS011;39558;52.028;8.536;2023-05-02T00:03:39;4.28;;;2.60;;
53654;SDS011;39558;52.028;8.536;2023-05-02T00:06:06;7.97;;;3.88;;
53654;SDS011;39558;52.028;8.536;2023-05-02T00:08:32;5.00;;;3.13;;
53654;SDS011;39558;52.028;8.536;2023-05-02T00:10:58;4.70;;;2.72;;
53654;SDS011;39558;52.028;8.536;2023-05-02T00:13:24;8.38;;;2.83;;
53654;SDS011;39558;52.028;8.536;2023-05-02T00:15:50;7.97;;;2.75;;
53654;SDS011;39558;52.028;8.536;2023-05-02T00:18:15;7.47;;;3.08;;
53654;SDS011;39558;52.028;8.536;2023-05-02T00:20:41;6.00;;;2.88;;
53654;SDS011;39558;52.028;8.536;2023-05-02T00:23:07;5.53;;;3.00;;
53654;SDS011;39558;52.028;8.536;2023-05-02T00:25:36;4.78;;;3.05;;
53654;SDS011;39558;52.028;8.536;2023-05-02T00:28:01;5.35;;;2.78;;
53654;SDS011;39558;52.028;8.536;2023-05-02T00:30:27;5.82;;;2.75;;
53654;SDS011;39558;52.028;8.536;2023-05-02T00:32:53;4.95;;;2.30;;
53654;SDS011;39558;52.028;8.536;2023-05-02T00:35:19;5.40;;;2.70;;
53654;SDS011;39558;52.028;8.536;2023-05-02T00:37:45;5.72;;;2.88;;
53654;SDS011;39558;52.028;8.536;2023-05-02T00:40:11;5.60;;;2.90;;
53654;SDS011;39558;52.028;8.536;2023-05-02T00:42:37;5.60;;;3.00;;
53654;SDS011;39558;52.028;8.536;2023-05-02T00:45:03;4.70;;;2.67;;
53654;SDS011;39558;52.028;8.536;2023-05-02T00:47:30;5.95;;;2.83;;
53654;SDS011;39558;52.028;8.536;2023-05-02T00:49:56;5.47;;;2.63;;
53654;SDS011;39558;52.028;8.536;2023-05-02T00:52:22;5.53;;;3.05;;
53654;SDS011;39558;52.028;8.536;2023-05-02T00:54:49;4.68;;;2.50;;
53654;SDS011;39558;52.028;8.536;2023-05-02T00:57:15;4.63;;;2.80;;
53654;SDS011;39558;52.028;8.536;2023-05-02T00:59:40;7.00;;;2.92;;
53654;SDS011;39558;52.028;8.536;2023-05-02T01:02:12;4.85;;;2.60;;
53654;SDS011;39558;52.028;8.536;2023-05-02T01:05:04;5.30;;;2.80;;
53654;SDS011;39558;52.028;8.536;2023-05-02T01:07:34;4.72;;;2.60;;
53654;SDS011;39558;52.028;8.536;2023-05-02T01:10:08;5.78;;;3.25;;
53654;SDS011;39558;52.028;8.536;2023-05-02T01:12:41;4.80;;;2.67;;
53654;SDS011;39558;52.028;8.536;2023-05-02T01:15:07;5.38;;;2.78;;
53654;SDS011;39558;52.028;8.536;2023-05-02T01:17:34;4.43;;;2.35;;
53654;SDS011;39558;52.028;8.536;2023-05-02T01:20:02;4.95;;;2.17;;
53654;SDS011;39558;52.028;8.536;2023-05-02T01:22:29;6.20;;;2.72;;
53654;SDS011;39558;52.028;8.536;2023-05-02T01:25:01;4.90;;;3.00;;
53654;SDS011;39558;52.028;8.536;2023-05-02T01:27:33;5.00;;;2.60;;
53654;SDS011;39558;52.028;8.536;2023-05-02T01:30:01;6.07;;;3.10;;
53654;SDS011;39558;52.028;8.536;2023-05-02T01:32:27;3.90;;;2.47;;
53654;SDS011;39558;52.028;8.536;2023-05-02T01:34:55;4.97;;;2.28;;
53654;SDS011;39558;52.028;8.536;2023-05-02T01:37:23;5.82;;;2.30;;
53654;SDS011;39558;52.028;8.536;2023-05-02T01:39:49;5.40;;;2.28;;
53654;SDS011;39558;52.028;8.536;2023-05-02T01:42:15;4.32;;;2.35;;
53654;SDS011;39558;52.028;8.536;2023-05-02T01:44:42;4.78;;;2.10;;
53654;SDS011;39558;52.028;8.536;2023-05-02T01:47:09;3.70;;;2.20;;
53654;SDS011;39558;52.028;8.536;2023-05-02T01:49:36;5.72;;;2.50;;
53654;SDS011;39558;52.028;8.536;2023-05-02T01:52:04;4.72;;;2.40;;
53654;SDS011;39558;52.028;8.536;2023-05-02T01:54:32;5.15;;;2.15;;
53654;SDS011;39558;52.028;8.536;2023-05-02T01:56:59;6.47;;;3.38;;
53654;SDS011;39558;52.028;8.536;2023-05-02T01:59:27;4.47;;;2.50;;
53654;SDS011;39558;52.028;8.536;2023-05-02T02:01:54;8.75;;;3.03;;
53654;SDS011;39558;52.028;8.536;2023-05-02T02:04:20;4.32;;;2.40;;
53654;SDS011;39558;52.028;8.536;2023-05-02T02:06:50;4.15;;;2.17;;
53654;SDS011;39558;52.028;8.536;2023-05-02T02:09:18;4.03;;;2.17;;
53654;SDS011;39558;52.028;8.536;2023-05-02T02:14:41;5.07;;;2.40;;
53654;SDS011;39558;52.028;8.536;2023-05-02T02:17:11;5.32;;;2.47;;
53654;SDS011;39558;52.028;8.536;2023-05-02T02:19:38;6.20;;;3.17;;
53654;SDS011;39558;52.028;8.536;2023-05-02T02:22:05;3.30;;;1.98;;
53654;SDS011;39558;52.028;8.536;2023-05-02T02:24:33;4.88;;;2.70;;
53654;SDS011;39558;52.028;8.536;2023-05-02T02:27:00;4.07;;;2.33;;
53654;SDS011;39558;52.028;8.536;2023-05-02T02:29:26;4.40;;;1.90;;
53654;SDS011;39558;52.028;8.536;2023-05-02T02:31:52;5.80;;;2.63;;
53654;SDS011;39558;52.028;8.536;2023-05-02T02:34:18;4.78;;;2.10;;
53654;SDS011;39558;52.028;8.536;2023-05-02T02:36:46;6.13;;;2.30;;
53654;SDS011;39558;52.028;8.536;2023-05-02T02:39:17;4.38;;;2.40;;
53654;SDS011;39558;52.028;8.536;2023-05-02T02:41:52;3.95;;;2.03;;
53654;SDS011;39558;52.028;8.536;2023-05-02T02:44:33;4.18;;;2.10;;
53654;SDS011;39558;52.028;8.536;2023-05-02T02:47:05;5.20;;;2.25;;
53654;SDS011;39558;52.028;8.536;2023-05-02T02:49:49;4.60;;;2.13;;
53654;SDS011;39558;52.028;8.536;2023-05-02T02:52:24;4.05;;;2.40;;
53654;SDS011;39558;52.028;8.536;2023-05-02T02:54:55;4.03;;;2.08;;
53654;SDS011;39558;52.028;8.536;2023-05-02T02:57:27;4.63;;;2.13;;
53654;SDS011;39558;52.028;8.536;2023-05-02T03:02:30;4.57;;;2.20;;
53654;SDS011;39558;52.028;8.536;2023-05-02T03:04:57;3.95;;;2.10;;
53654;SDS011;39558;52.028;8.536;2023-05-02T03:07:26;4.95;;;2.33;;
53654;SDS011;39558;52.028;8.536;2023-05-02T03:09:52;3.58;;;1.73;;
53654;SDS011;39558;52.028;8.536;2023-05-02T03:12:18;3.40;;;2.00;;
53654;SDS011;39558;52.028;8.536;2023-05-02T03:14:45;5.80;;;2.53;;
53654;SDS011;39558;52.028;8.536;2023-05-02T03:17:10;4.90;;;1.80;;
53654;SDS011;39558;52.028;8.536;2023-05-02T03:19:36;4.57;;;1.77;;
53654;SDS011;39558;52.028;8.536;2023-05-02T03:22:02;3.83;;;1.92;;
53654;SDS011;39558;52.028;8.536;2023-05-02T03:24:28;3.80;;;1.98;;
53654;SDS011;39558;52.028;8.536;2023-05-02T03:26:55;4.28;;;2.00;;
53654;SDS011;39558;52.028;8.536;2023-05-02T03:29:22;6.95;;;2.17;;
53654;SDS011;39558;52.028;8.536;2023-05-02T03:31:48;4.10;;;1.98;;
53654;SDS011;39558;52.028;8.536;2023-05-02T03:34:14;3.95;;;1.95;;
53654;SDS011;39558;52.028;8.536;2023-05-02T03:36:40;5.03;;;1.70;;
53654;SDS011;39558;52.028;8.536;2023-05-02T03:39:06;5.05;;;2.25;;
53654;SDS011;39558;52.028;8.536;2023-05-02T03:41:32;4.35;;;1.98;;
53654;SDS011;39558;52.028;8.536;2023-05-02T03:43:58;4.32;;;2.17;;
53654;SDS011;39558;52.028;8.536;2023-05-02T03:46:24;4.28;;;2.03;;
53654;SDS011;39558;52.028;8.536;2023-05-02T03:48:50;4.22;;;2.03;;
53654;SDS011;39558;52.028;8.536;2023-05-02T03:51:16;3.50;;;1.50;;
53654;SDS011;39558;52.028;8.536;2023-05-02T03:53:42;2.72;;;1.70;;
53654;SDS011;39558;52.028;8.536;2023-05-02T03:56:08;4.30;;;1.90;;
53654;SDS011;39558;52.028;8.536;2023-05-02T03:58:34;5.03;;;2.15;;
53654;SDS011;39558;52.028;8.536;2023-05-02T04:01:00;5.57;;;1.92;;
53654;SDS011;39558;52.028;8.536;2023-05-02T04:03:26;4.30;;;2.08;;
53654;SDS011;39558;52.028;8.536;2023-05-02T04:05:52;3.13;;;1.55;;
53654;SDS011;39558;52.028;8.536;2023-05-02T04:08:18;2.80;;;1.55;;
53654;SDS011;39558;52.028;8.536;2023-05-02T04:10:44;3.33;;;1.63;;
53654;SDS011;39558;52.028;8.536;2023-05-02T04:13:10;3.83;;;1.90;;
53654;SDS011;39558;52.028;8.536;2023-05-02T04:15:36;3.83;;;1.60;;
53654;SDS011;39558;52.028;8.536;2023-05-02T04:18:02;3.50;;;1.50;;
53654;SDS011;39558;52.028;8.536;2023-05-02T04:20:28;3.47;;;1.80;;
53654;SDS011;39558;52.028;8.536;2023-05-02T04:22:54;3.20;;;1.65;;
53654;SDS011;39558;52.028;8.536;2023-05-02T04:25:20;3.13;;;1.70;;
53654;SDS011;39558;52.028;8.536;2023-05-02T04:27:46;4.20;;;1.70;;
53654;SDS011;39558;52.028;8.536;2023-05-02T04:30:12;2.67;;;1.50;;
53654;SDS011;39558;52.028;8.536;2023-05-02T04:32:38;3.65;;;1.80;;
53654;SDS011;39558;52.028;8.536;2023-05-02T04:35:04;2.45;;;1.33;;
53654;SDS011;39558;52.028;8.536;2023-05-02T04:37:30;3.80;;;1.65;;
53654;SDS011;39558;52.028;8.536;2023-05-02T04:39:56;3.40;;;1.60;;
53654;SDS011;39558;52.028;8.536;2023-05-02T04:42:22;3.35;;;1.58;;
53654;SDS011;39558;52.028;8.536;2023-05-02T04:44:48;3.47;;;1.60;;
53654;SDS011;39558;52.028;8.536;2023-05-02T04:47:14;3.85;;;1.70;;
53654;SDS011;39558;52.028;8.536;2023-05-02T04:49:41;5.18;;;1.58;;
53654;SDS011;39558;52.028;8.536;2023-05-02T04:52:07;3.13;;;1.70;;
53654;SDS011;39558;52.028;8.536;2023-05-02T04:54:34;4.57;;;1.70;;
53654;SDS011;39558;52.028;8.536;2023-05-02T04:57:00;2.47;;;1.60;;
53654;SDS011;39558;52.028;8.536;2023-05-02T04:59:27;2.88;;;1.40;;
53654;SDS011;39558;52.028;8.536;2023-05-02T05:01:53;2.97;;;1.58;;
53654;SDS011;39558;52.028;8.536;2023-05-02T05:04:19;2.42;;;1.50;;
53654;SDS011;39558;52.028;8.536;2023-05-02T05:06:45;2.38;;;1.23;;
53654;SDS011;39558;52.028;8.536;2023-05-02T05:09:13;2.33;;;1.23;;
53654;SDS011;39558;52.028;8.536;2023-05-02T05:11:38;3.42;;;1.60;;
53654;SDS011;39558;52.028;8.536;2023-05-02T05:14:06;2.78;;;1.50;;
53654;SDS011;39558;52.028;8.536;2023-05-02T05:16:32;3.30;;;1.50;;
53654;SDS011;39558;52.028;8.536;2023-05-02T05:18:58;3.00;;;1.42;;
53654;SDS011;39558;52.028;8.536;2023-05-02T05:21:24;2.75;;;1.08;;
53654;SDS011;39558;52.028;8.536;2023-05-02T05:23:51;3.95;;;1.55;;
53654;SDS011;39558;52.028;8.536;2023-05-02T05:26:17;4.10;;;1.38;;
53654;SDS011;39558;52.028;8.536;2023-05-02T05:28:43;2.08;;;1.05;;
53654;SDS011;39558;52.028;8.536;2023-05-02T05:31:12;3.10;;;1.10;;
53654;SDS011;39558;52.028;8.536;2023-05-02T05:33:41;3.00;;;1.15;;
53654;SDS011;39558;52.028;8.536;2023-05-02T05:36:08;3.42;;;1.25;;
53654;SDS011;39558;52.028;8.536;2023-05-02T05:38:35;2.65;;;1.23;;
53654;SDS011;39558;52.028;8.536;2023-05-02T05:41:01;3.45;;;1.23;;
53654;SDS011;39558;52.028;8.536;2023-05-02T05:43:27;3.28;;;1.33;;
53654;SDS011;39558;52.028;8.536;2023-05-02T05:45:53;4.18;;;1.20;;
53654;SDS011;39558;52.028;8.536;2023-05-02T05:48:19;2.63;;;1.10;;
53654;SDS011;39558;52.028;8.536;2023-05-02T05:50:45;3.85;;;1.70;;
53654;SDS011;39558;52.028;8.536;2023-05-02T05:53:12;3.75;;;1.65;;
53654;SDS011;39558;52.028;8.536;2023-05-02T05:55:38;2.47;;;0.90;;
53654;SDS011;39558;52.028;8.536;2023-05-02T05:58:04;3.08;;;1.25;;
53654;SDS011;39558;52.028;8.536;2023-05-02T06:00:30;1.95;;;1.08;;
53654;SDS011;39558;52.028;8.536;2023-05-02T06:02:56;3.88;;;1.45;;
53654;SDS011;39558;52.028;8.536;2023-05-02T06:05:22;4.18;;;1.40;;
53654;SDS011;39558;52.028;8.536;2023-05-02T06:07:48;2.75;;;1.40;;
53654;SDS011;39558;52.028;8.536;2023-05-02T06:10:14;2.17;;;0.90;;
53654;SDS011;39558;52.028;8.536;2023-05-02T06:12:40;2.30;;;1.20;;
53654;SDS011;39558;52.028;8.536;2023-05-02T06:15:06;2.10;;;1.17;;
53654;SDS011;39558;52.028;8.536;2023-05-02T06:17:32;2.17;;;1.10;;
53654;SDS011;39558;52.028;8.536;2023-05-02T06:19:57;4.00;;;1.48;;
53654;SDS011;39558;52.028;8.536;2023-05-02T06:22:23;2.97;;;1.27;;
53654;SDS011;39558;52.028;8.536;2023-05-02T06:24:49;2.85;;;1.67;;
53654;SDS011;39558;52.028;8.536;2023-05-02T06:27:15;3.83;;;1.55;;
53654;SDS011;39558;52.028;8.536;2023-05-02T06:29:41;1.95;;;1.20;;
53654;SDS011;39558;52.028;8.536;2023-05-02T06:32:07;3.67;;;1.23;;
53654;SDS011;39558;52.028;8.536;2023-05-02T06:34:33;4.32;;;1.25;;
53654;SDS011;39558;52.028;8.536;2023-05-02T06:36:59;3.22;;;1.40;;
53654;SDS011;39558;52.028;8.536;2023-05-02T06:39:25;4.25;;;1.08;;
53654;SDS011;39558;52.028;8.536;2023-05-02T06:41:57;3.30;;;1.25;;
53654;SDS011;39558;52.028;8.536;2023-05-02T06:44:24;4.75;;;1.63;;
53654;SDS011;39558;52.028;8.536;2023-05-02T06:46:49;4.82;;;1.10;;
53654;SDS011;39558;52.028;8.536;2023-05-02T06:49:15;1.60;;;1.00;;
53654;SDS011;39558;52.028;8.536;2023-05-02T06:51:42;3.38;;;1.02;;
53654;SDS011;39558;52.028;8.536;2023-05-02T06:54:08;1.98;;;0.75;;
53654;SDS011;39558;52.028;8.536;2023-05-02T06:56:34;3.92;;;1.30;;
53654;SDS011;39558;52.028;8.536;2023-05-02T06:59:00;2.08;;;0.88;;
53654;SDS011;39558;52.028;8.536;2023-05-02T07:01:26;7.30;;;1.17;;
53654;SDS011;39558;52.028;8.536;2023-05-02T07:03:52;4.53;;;1.15;;
53654;SDS011;39558;52.028;8.536;2023-05-02T07:06:18;3.22;;;1.27;;
53654;SDS011;39558;52.028;8.536;2023-05-02T07:08:45;2.25;;;0.85;;
53654;SDS011;39558;52.028;8.536;2023-05-02T07:11:11;5.03;;;0.90;;
53654;SDS011;39558;52.028;8.536;2023-05-02T07:13:37;2.45;;;0.90;;
53654;SDS011;39558;52.028;8.536;2023-05-02T07:16:03;2.80;;;1.10;;
53654;SDS011;39558;52.028;8.536;2023-05-02T07:18:29;4.22;;;0.88;;
53654;SDS011;39558;52.028;8.536;2023-05-02T07:20:55;3.30;;;0.80;;
53654;SDS011;39558;52.028;8.536;2023-05-02T07:23:21;1.40;;;0.60;;
53654;SDS011;39558;52.028;8.536;2023-05-02T07:25:47;3.67;;;0.82;;
53654;SDS011;39558;52.028;8.536;2023-05-02T07:28:13;2.40;;;0.55;;
53654;SDS011;39558;52.028;8.536;2023-05-02T07:30:39;1.67;;;0.77;;
53654;SDS011;39558;52.028;8.536;2023-05-02T07:33:05;3.08;;;1.05;;
53654;SDS011;39558;52.028;8.536;2023-05-02T07:35:31;1.83;;;1.13;;
53654;SDS011;39558;52.028;8.536;2023-05-02T07:37:57;1.65;;;0.85;;
53654;SDS011;39558;52.028;8.536;2023-05-02T07:40:23;0.90;;;0.50;;
53654;SDS011;39558;52.028;8.536;2023-05-02T07:42:49;1.70;;;0.75;;
53654;SDS011;39558;52.028;8.536;2023-05-02T07:45:15;3.15;;;0.70;;
53654;SDS011;39558;52.028;8.536;2023-05-02T07:47:41;1.33;;;0.65;;
53654;SDS011;39558;52.028;8.536;2023-05-02T07:50:07;1.60;;;0.77;;
53654;SDS011;39558;52.028;8.536;2023-05-02T07:52:33;3.67;;;1.05;;
53654;SDS011;39558;52.028;8.536;2023-05-02T07:54:59;1.95;;;0.88;;
53654;SDS011;39558;52.028;8.536;2023-05-02T07:57:25;5.30;;;0.70;;
53654;SDS011;39558;52.028;8.536;2023-05-02T07:59:51;2.25;;;0.70;;
53654;SDS011;39558;52.028;8.536;2023-05-02T08:02:17;5.85;;;0.60;;
53654;SDS011;39558;52.028;8.536;2023-05-02T08:04:45;3.15;;;1.40;;
53654;SDS011;39558;52.028;8.536;2023-05-02T08:07:12;2.50;;;0.82;;
53654;SDS011;39558;52.028;8.536;2023-05-02T08:09:38;2.80;;;1.50;;
53654;SDS011;39558;52.028;8.536;2023-05-02T08:12:04;1.08;;;0.60;;
53654;SDS011;39558;52.028;8.536;2023-05-02T08:14:30;2.63;;;0.90;;
53654;SDS011;39558;52.028;8.536;2023-05-02T08:16:56;1.80;;;0.65;;
53654;SDS011;39558;52.028;8.536;2023-05-02T08:19:22;4.68;;;1.23;;
53654;SDS011;39558;52.028;8.536;2023-05-02T08:21:48;2.78;;;0.75;;
53654;SDS011;39558;52.028;8.536;2023-05-02T08:24:14;1.60;;;0.80;;
53654;SDS011;39558;52.028;8.536;2023-05-02T08:26:40;1.42;;;0.75;;
53654;SDS011;39558;52.028;8.536;2023-05-02T08:29:06;1.25;;;0.63;;
53654;SDS011;39558;52.028;8.536;2023-05-02T08:31:35;2.42;;;0.70;;
53654;SDS011;39558;52.028;8.536;2023-05-02T08:34:01;2.40;;;0.65;;
53654;SDS011;39558;52.028;8.536;2023-05-02T08:36:27;0.90;;;0.50;;
53654;SDS011;39558;52.028;8.536;2023-05-02T08:38:53;2.42;;;0.70;;
53654;SDS011;39558;52.028;8.536;2023-05-02T08:41:19;3.88;;;0.60;;
53654;SDS011;39558;52.028;8.536;2023-05-02T08:43:45;1.30;;;0.55;;
53654;SDS011;39558;52.028;8.536;2023-05-02T08:46:12;2.15;;;0.55;;
53654;SDS011;39558;52.028;8.536;2023-05-02T08:48:39;3.75;;;0.75;;
53654;SDS011;39558;52.028;8.536;2023-05-02T08:51:09;1.80;;;0.50;;
53654;SDS011;39558;52.028;8.536;2023-05-02T08:53:36;3.45;;;0.57;;
53654;SDS011;39558;52.028;8.536;2023-05-02T08:56:02;2.33;;;0.80;;
53654;SDS011;39558;52.028;8.536;2023-05-02T08:58:28;3.10;;;0.60;;
53654;SDS011;39558;52.028;8.536;2023-05-02T09:00:54;2.28;;;0.50;;
53654;SDS011;39558;52.028;8.536;2023-05-02T09:03:31;1.77;;;0.60;;
53654;SDS011;39558;52.028;8.536;2023-05-02T09:06:01;1.20;;;0.60;;
53654;SDS011;39558;52.028;8.536;2023-05-02T09:08:28;1.55;;;0.70;;
53654;SDS011;39558;52.028;8.536;2023-05-02T09:10:54;2.75;;;0.90;;
53654;SDS011;39558;52.028;8.536;2023-05-02T09:13:30;4.10;;;0.88;;
53654;SDS011;39558;52.028;8.536;2023-05-02T09:18:24;1.17;;;0.50;;
53654;SDS011;39558;52.028;8.536;2023-05-02T09:20:51;1.95;;;0.40;;
53654;SDS011;39558;52.028;8.536;2023-05-02T09:23:17;1.38;;;0.82;;
53654;SDS011;39558;52.028;8.536;2023-05-02T09:25:43;1.35;;;0.60;;
53654;SDS011;39558;52.028;8.536;2023-05-02T09:28:09;1.52;;;0.60;;
53654;SDS011;39558;52.028;8.536;2023-05-02T09:30:35;0.70;;;0.43;;
53654;SDS011;39558;52.028;8.536;2023-05-02T09:33:01;1.98;;;0.40;;
53654;SDS011;39558;52.028;8.536;2023-05-02T09:35:27;2.58;;;0.63;;
53654;SDS011;39558;52.028;8.536;2023-05-02T09:37:54;0.50;;;0.32;;
53654;SDS011;39558;52.028;8.536;2023-05-02T09:40:20;2.78;;;0.55;;
53654;SDS011;39558;52.028;8.536;2023-05-02T09:42:47;1.85;;;0.73;;
53654;SDS011;39558;52.028;8.536;2023-05-02T09:45:18;1.70;;;0.55;;
53654;SDS011;39558;52.028;8.536;2023-05-02T09:47:44;1.70;;;0.50;;
53654;SDS011;39558;52.028;8.536;2023-05-02T09:50:11;0.73;;;0.40;;
53654;SDS011;39558;52.028;8.536;2023-05-02T09:52:37;5.07;;;0.55;;
53654;SDS011;39558;52.028;8.536;2023-05-02T09:55:17;0.82;;;0.40;;
53654;SDS011;39558;52.028;8.536;2023-05-02T09:57:45;0.70;;;0.40;;
53654;SDS011;39558;52.028;8.536;2023-05-02T10:00:11;1.40;;;0.60;;
53654;SDS011;39558;52.028;8.536;2023-05-02T10:02:39;0.82;;;0.50;;
53654;SDS011;39558;52.028;8.536;2023-05-02T10:05:07;1.60;;;0.70;;
53654;SDS011;39558;52.028;8.536;2023-05-02T10:07:35;1.92;;;0.50;;
53654;SDS011;39558;52.028;8.536;2023-05-02T10:10:02;1.90;;;0.55;;
53654;SDS011;39558;52.028;8.536;2023-05-02T10:12:28;2.97;;;0.47;;
53654;SDS011;39558;52.028;8.536;2023-05-02T10:14:56;3.35;;;1.60;;
53654;SDS011;39558;52.028;8.536;2023-05-02T10:17:30;2.85;;;1.67;;
53654;SDS011;39558;52.028;8.536;2023-05-02T10:19:56;2.15;;;1.10;;
53654;SDS011;39558;52.028;8.536;2023-05-02T10:22:25;1.98;;;0.82;;
53654;SDS011;39558;52.028;8.536;2023-05-02T10:24:51;2.13;;;0.80;;
53654;SDS011;39558;52.028;8.536;2023-05-02T10:27:17;1.90;;;0.68;;
53654;SDS011;39558;52.028;8.536;2023-05-02T10:29:43;6.15;;;0.80;;
53654;SDS011;39558;52.028;8.536;2023-05-02T10:32:10;4.20;;;0.60;;
53654;SDS011;39558;52.028;8.536;2023-05-02T10:34:38;1.60;;;0.65;;
53654;SDS011;39558;52.028;8.536;2023-05-02T10:37:05;2.65;;;0.57;;
53654;SDS011;39558;52.028;8.536;2023-05-02T10:39:30;2.60;;;0.47;;
53654;SDS011;39558;52.028;8.536;2023-05-02T10:41:58;1.10;;;0.45;;
53654;SDS011;39558;52.028;8.536;2023-05-02T10:44:40;3.20;;;0.40;;
53654;SDS011;39558;52.028;8.536;2023-05-02T10:47:18;2.67;;;0.50;;
53654;SDS011;39558;52.028;8.536;2023-05-02T10:49:48;2.57;;;0.60;;
53654;SDS011;39558;52.028;8.536;2023-05-02T10:52:57;1.45;;;0.50;;
53654;SDS011;39558;52.028;8.536;2023-05-02T10:55:21;1.35;;;0.57;;
53654;SDS011;39558;52.028;8.536;2023-05-02T11:00:27;0.73;;;0.30;;
53654;SDS011;39558;52.028;8.536;2023-05-02T11:02:53;2.88;;;0.40;;
53654;SDS011;39558;52.028;8.536;2023-05-02T11:05:20;1.73;;;0.63;;
53654;SDS011;39558;52.028;8.536;2023-05-02T11:07:47;1.95;;;0.63;;
53654;SDS011;39558;52.028;8.536;2023-05-02T11:12:42;1.65;;;0.60;;
53654;SDS011;39558;52.028;8.536;2023-05-02T11:15:10;3.25;;;0.93;;
53654;SDS011;39558;52.028;8.536;2023-05-02T11:20:20;1.48;;;0.60;;
53654;SDS011;39558;52.028;8.536;2023-05-02T11:22:46;2.85;;;0.80;;
53654;SDS011;39558;52.028;8.536;2023-05-02T11:25:32;2.17;;;0.47;;
53654;SDS011;39558;52.028;8.536;2023-05-02T11:27:59;2.13;;;0.52;;
53654;SDS011;39558;52.028;8.536;2023-05-02T11:35:33;1.92;;;0.60;;
53654;SDS011;39558;52.028;8.536;2023-05-02T11:40:27;3.22;;;0.60;;
53654;SDS011;39558;52.028;8.536;2023-05-02T11:42:53;2.13;;;0.70;;
53654;SDS011;39558;52.028;8.536;2023-05-02T11:45:19;1.70;;;0.60;;
53654;SDS011;39558;52.028;8.536;2023-05-02T11:47:47;2.53;;;0.65;;
53654;SDS011;39558;52.028;8.536;2023-05-02T11:50:14;2.35;;;0.60;;
53654;SDS011;39558;52.028;8.536;2023-05-02T11:52:41;5.35;;;0.60;;
53654;SDS011;39558;52.028;8.536;2023-05-02T11:55:09;4.72;;;0.75;;
53654;SDS011;39558;52.028;8.536;2023-05-02T11:57:36;3.88;;;1.40;;
53654;SDS011;39558;52.028;8.536;2023-05-02T12:00:02;10.55;;;1.27;;
53654;SDS011;39558;52.028;8.536;2023-05-02T12:02:35;6.00;;;1.10;;
53654;SDS011;39558;52.028;8.536;2023-05-02T12:05:04;5.85;;;1.52;;
53654;SDS011;39558;52.028;8.536;2023-05-02T12:07:35;7.00;;;1.35;;
53654;SDS011;39558;52.028;8.536;2023-05-02T12:10:01;4.40;;;1.10;;
53654;SDS011;39558;52.028;8.536;2023-05-02T12:12:28;3.63;;;1.52;;
53654;SDS011;39558;52.028;8.536;2023-05-02T12:14:53;4.25;;;0.93;;
53654;SDS011;39558;52.028;8.536;2023-05-02T12:17:20;4.55;;;0.93;;
53654;SDS011;39558;52.028;8.536;2023-05-02T12:19:46;5.93;;;1.98;;
53654;SDS011;39558;52.028;8.536;2023-05-02T12:22:12;8.75;;;1.70;;
53654;SDS011;39558;52.028;8.536;2023-05-02T12:24:39;4.10;;;1.20;;
53654;SDS011;39558;52.028;8.536;2023-05-02T12:27:11;2.45;;;0.80;;
53654;SDS011;39558;52.028;8.536;2023-05-02T12:29:41;2.80;;;0.90;;
53654;SDS011;39558;52.028;8.536;2023-05-02T12:32:07;4.80;;;1.08;;
53654;SDS011;39558;52.028;8.536;2023-05-02T12:34:34;8.25;;;1.92;;
53654;SDS011;39558;52.028;8.536;2023-05-02T12:37:01;5.60;;;1.35;;
53654;SDS011;39558;52.028;8.536;2023-05-02T12:42:08;8.95;;;2.30;;
53654;SDS011;39558;52.028;8.536;2023-05-02T12:44:35;8.75;;;2.33;;
53654;SDS011;39558;52.028;8.536;2023-05-02T12:47:02;11.38;;;2.88;;
53654;SDS011;39558;52.028;8.536;2023-05-02T12:49:29;9.13;;;2.40;;
53654;SDS011;39558;52.028;8.536;2023-05-02T12:51:55;12.73;;;2.50;;
53654;SDS011;39558;52.028;8.536;2023-05-02T12:54:21;11.32;;;2.78;;
53654;SDS011;39558;52.028;8.536;2023-05-02T12:56:47;9.82;;;3.30;;
53654;SDS011;39558;52.028;8.536;2023-05-02T12:59:28;9.25;;;2.63;;
53654;SDS011;39558;52.028;8.536;2023-05-02T13:01:54;8.25;;;2.78;;
53654;SDS011;39558;52.028;8.536;2023-05-02T13:04:21;12.93;;;2.40;;
53654;SDS011;39558;52.028;8.536;2023-05-02T13:06:47;11.48;;;2.35;;
53654;SDS011;39558;52.028;8.536;2023-05-02T13:09:13;8.95;;;1.90;;
53654;SDS011;39558;52.028;8.536;2023-05-02T13:11:38;7.95;;;2.45;;
53654;SDS011;39558;52.028;8.536;2023-05-02T13:14:04;8.45;;;2.05;;
53654;SDS011;39558;52.028;8.536;2023-05-02T13:16:30;15.00;;;2.03;;
53654;SDS011;39558;52.028;8.536;2023-05-02T13:18:58;9.93;;;1.83;;
53654;SDS011;39558;52.028;8.536;2023-05-02T13:21:24;7.80;;;1.95;;
53654;SDS011;39558;52.028;8.536;2023-05-02T13:23:50;8.10;;;1.80;;
53654;SDS011;39558;52.028;8.536;2023-05-02T13:26:17;8.18;;;2.25;;
53654;SDS011;39558;52.028;8.536;2023-05-02T13:28:43;4.85;;;1.65;;
53654;SDS011;39558;52.028;8.536;2023-05-02T13:31:09;3.13;;;1.10;;
53654;SDS011;39558;52.028;8.536;2023-05-02T13:33:35;4.13;;;1.00;;
53654;SDS011;39558;52.028;8.536;2023-05-02T13:36:00;5.30;;;1.08;;
53654;SDS011;39558;52.028;8.536;2023-05-02T13:38:27;3.00;;;1.17;;
53654;SDS011;39558;52.028;8.536;2023-05-02T13:40:54;2.88;;;0.80;;
53654;SDS011;39558;52.028;8.536;2023-05-02T13:43:23;2.53;;;1.15;;
53654;SDS011;39558;52.028;8.536;2023-05-02T13:45:50;5.55;;;1.50;;
53654;SDS011;39558;52.028;8.536;2023-05-02T13:48:16;3.25;;;1.17;;
53654;SDS011;39558;52.028;8.536;2023-05-02T13:50:42;2.70;;;0.82;;
53654;SDS011;39558;52.028;8.536;2023-05-02T13:53:08;2.92;;;0.90;;
53654;SDS011;39558;52.028;8.536;2023-05-02T13:55:35;4.10;;;0.95;;
53654;SDS011;39558;52.028;8.536;2023-05-02T13:58:01;2.53;;;0.90;;
53654;SDS011;39558;52.028;8.536;2023-05-02T14:00:27;2.80;;;0.63;;
53654;SDS011;39558;52.028;8.536;2023-05-02T14:02:53;2.58;;;0.80;;
53654;SDS011;39558;52.028;8.536;2023-05-02T14:05:19;2.30;;;0.80;;
53654;SDS011;39558;52.028;8.536;2023-05-02T14:07:45;2.60;;;0.70;;
53654;SDS011;39558;52.028;8.536;2023-05-02T14:10:11;1.42;;;0.57;;
53654;SDS011;39558;52.028;8.536;2023-05-02T14:12:36;3.28;;;0.75;;
53654;SDS011;39558;52.028;8.536;2023-05-02T14:15:03;2.92;;;0.77;;
53654;SDS011;39558;52.028;8.536;2023-05-02T14:17:29;3.70;;;0.80;;
53654;SDS011;39558;52.028;8.536;2023-05-02T14:19:55;1.48;;;0.50;;
53654;SDS011;39558;52.028;8.536;2023-05-02T14:22:21;2.60;;;0.80;;
53654;SDS011;39558;52.028;8.536;2023-05-02T14:24:47;1.92;;;0.65;;
53654;SDS011;39558;52.028;8.536;2023-05-02T14:27:13;2.33;;;0.90;;
53654;SDS011;39558;52.028;8.536;2023-05-02T14:29:45;4.47;;;0.98;;
53654;SDS011;39558;52.028;8.536;2023-05-02T14:32:11;1.55;;;0.95;;
53654;SDS011;39558;52.028;8.536;2023-05-02T14:34:38;3.97;;;1.27;;
53654;SDS011;39558;52.028;8.536;2023-05-02T14:37:04;2.47;;;0.75;;
53654;SDS011;39558;52.028;8.536;2023-05-02T14:39:30;2.85;;;1.25;;
53654;SDS011;39558;52.028;8.536;2023-05-02T14:41:56;2.40;;;0.90;;
53654;SDS011;39558;52.028;8.536;2023-05-02T14:44:22;3.63;;;0.73;;
53654;SDS011;39558;52.028;8.536;2023-05-02T14:46:48;2.38;;;0.70;;
53654;SDS011;39558;52.028;8.536;2023-05-02T14:49:15;3.20;;;0.70;;
53654;SDS011;39558;52.028;8.536;2023-05-02T14:51:41;2.47;;;0.75;;
53654;SDS011;39558;52.028;8.536;2023-05-02T14:54:11;4.07;;;1.25;;
53654;SDS011;39558;52.028;8.536;2023-05-02T14:56:36;1.73;;;0.68;;
53654;SDS011;39558;52.028;8.536;2023-05-02T14:59:02;3.13;;;0.90;;
53654;SDS011;39558;52.028;8.536;2023-05-02T15:01:28;3.92;;;0.95;;
53654;SDS011;39558;52.028;8.536;2023-05-02T15:03:54;1.35;;;0.50;;
53654;SDS011;39558;52.028;8.536;2023-05-02T15:06:20;5.90;;;0.90;;
53654;SDS011;39558;52.028;8.536;2023-05-02T15:08:46;1.95;;;0.77;;
53654;SDS011;39558;52.028;8.536;2023-05-02T15:11:14;2.13;;;1.00;;
53654;SDS011;39558;52.028;8.536;2023-05-02T15:13:40;2.35;;;0.90;;